sensor_id;sensor_type;location;lat;lon;timestamp;P1;durP1;ratioP1;P2;durP2;ratioP2
49722;SDS011;43484;43.608;1.458;2024-02-14T00:02:03;20.45;;;12.15;;
49722;SDS011;43484;43.608;1.458;2024-02-14T00:04:32;21.27;;;12.52;;
49722;SDS011;43484;43.608;1.458;2024-02-14T00:06:58;22.92;;;12.13;;
49722;SDS011;43484;43.608;1.458;2024-02-14T00:09:25;21.25;;;12.05;;
49722;SDS011;43484;43.608;1.458;2024-02-14T00:11:52;22.67;;;10.70;;
49722;SDS011;43484;43.608;1.458;2024-02-14T00:14:19;22.83;;;10.57;;
49722;SDS011;43484;43.608;1.458;2024-02-14T00:16:46;18.58;;;10.18;;
49722;SDS011;43484;43.608;1.458;2024-02-14T00:19:13;20.00;;;11.98;;
49722;SDS011;43484;43.608;1.458;2024-02-14T00:21:41;19.27;;;10.95;;
49722;SDS011;43484;43.608;1.458;2024-02-14T00:24:08;22.08;;;11.65;;
49722;SDS011;43484;43.608;1.458;2024-02-14T00:26:34;22.75;;;12.15;;
49722;SDS011;43484;43.608;1.458;2024-02-14T00:29:02;21.52;;;12.75;;
49722;SDS011;43484;43.608;1.458;2024-02-14T00:31:29;24.50;;;14.85;;
49722;SDS011;43484;43.608;1.458;2024-02-14T00:33:55;25.95;;;13.40;;
49722;SDS011;43484;43.608;1.458;2024-02-14T00:36:22;22.52;;;12.80;;
49722;SDS011;43484;43.608;1.458;2024-02-14T00:38:49;30.20;;;14.10;;
49722;SDS011;43484;43.608;1.458;2024-02-14T00:41:16;28.30;;;14.00;;
49722;SDS011;43484;43.608;1.458;2024-02-14T00:43:42;22.70;;;13.93;;
49722;SDS011;43484;43.608;1.458;2024-02-14T00:46:09;23.00;;;14.00;;
49722;SDS011;43484;43.608;1.458;2024-02-14T00:48:41;22.35;;;14.25;;
49722;SDS011;43484;43.608;1.458;2024-02-14T00:51:08;23.05;;;13.55;;
49722;SDS011;43484;43.608;1.458;2024-02-14T00:53:34;21.25;;;13.63;;
49722;SDS011;43484;43.608;1.458;2024-02-14T00:56:01;21.23;;;14.27;;
49722;SDS011;43484;43.608;1.458;2024-02-14T00:58:29;24.88;;;14.15;;
49722;SDS011;43484;43.608;1.458;2024-02-14T01:00:55;27.83;;;14.20;;
49722;SDS011;43484;43.608;1.458;2024-02-14T01:03:22;25.42;;;13.52;;
49722;SDS011;43484;43.608;1.458;2024-02-14T01:05:48;21.73;;;12.65;;
49722;SDS011;43484;43.608;1.458;2024-02-14T01:08:16;21.23;;;12.93;;
49722;SDS011;43484;43.608;1.458;2024-02-14T01:10:43;22.83;;;12.98;;
49722;SDS011;43484;43.608;1.458;2024-02-14T01:13:10;18.90;;;13.02;;
49722;SDS011;43484;43.608;1.458;2024-02-14T01:15:36;23.05;;;13.32;;
49722;SDS011;43484;43.608;1.458;2024-02-14T01:18:04;23.85;;;14.45;;
49722;SDS011;43484;43.608;1.458;2024-02-14T01:20:31;22.13;;;14.00;;
49722;SDS011;43484;43.608;1.458;2024-02-14T01:22:58;24.65;;;14.40;;
49722;SDS011;43484;43.608;1.458;2024-02-14T01:25:26;18.80;;;12.77;;
49722;SDS011;43484;43.608;1.458;2024-02-14T01:27:52;23.65;;;15.23;;
49722;SDS011;43484;43.608;1.458;2024-02-14T01:30:19;23.85;;;14.32;;
49722;SDS011;43484;43.608;1.458;2024-02-14T01:32:46;25.33;;;13.50;;
49722;SDS011;43484;43.608;1.458;2024-02-14T01:35:13;22.08;;;12.40;;
49722;SDS011;43484;43.608;1.458;2024-02-14T01:37:40;20.70;;;13.40;;
49722;SDS011;43484;43.608;1.458;2024-02-14T01:40:06;18.42;;;12.43;;
49722;SDS011;43484;43.608;1.458;2024-02-14T01:42:33;20.15;;;12.82;;
49722;SDS011;43484;43.608;1.458;2024-02-14T01:45:00;18.83;;;12.80;;
49722;SDS011;43484;43.608;1.458;2024-02-14T01:47:29;18.33;;;11.93;;
49722;SDS011;43484;43.608;1.458;2024-02-14T01:49:59;17.15;;;12.13;;
49722;SDS011;43484;43.608;1.458;2024-02-14T01:52:26;19.35;;;11.60;;
49722;SDS011;43484;43.608;1.458;2024-02-14T01:54:53;15.65;;;10.68;;
49722;SDS011;43484;43.608;1.458;2024-02-14T01:57:21;17.08;;;11.23;;
49722;SDS011;43484;43.608;1.458;2024-02-14T01:59:49;16.50;;;10.80;;
49722;SDS011;43484;43.608;1.458;2024-02-14T02:02:19;17.00;;;10.43;;
49722;SDS011;43484;43.608;1.458;2024-02-14T02:04:46;15.80;;;10.43;;
49722;SDS011;43484;43.608;1.458;2024-02-14T02:07:13;23.10;;;11.05;;
49722;SDS011;43484;43.608;1.458;2024-02-14T02:09:39;14.40;;;10.60;;
49722;SDS011;43484;43.608;1.458;2024-02-14T02:12:06;15.63;;;11.13;;
49722;SDS011;43484;43.608;1.458;2024-02-14T02:14:34;22.95;;;12.02;;
49722;SDS011;43484;43.608;1.458;2024-02-14T02:17:01;17.33;;;10.75;;
49722;SDS011;43484;43.608;1.458;2024-02-14T02:19:28;19.15;;;11.15;;
49722;SDS011;43484;43.608;1.458;2024-02-14T02:21:55;19.05;;;10.93;;
49722;SDS011;43484;43.608;1.458;2024-02-14T02:24:22;14.65;;;10.48;;
49722;SDS011;43484;43.608;1.458;2024-02-14T02:26:48;16.13;;;10.70;;
49722;SDS011;43484;43.608;1.458;2024-02-14T02:29:15;16.70;;;10.55;;
49722;SDS011;43484;43.608;1.458;2024-02-14T02:31:43;13.82;;;10.63;;
49722;SDS011;43484;43.608;1.458;2024-02-14T02:34:09;16.65;;;10.65;;
49722;SDS011;43484;43.608;1.458;2024-02-14T02:36:37;18.85;;;10.07;;
49722;SDS011;43484;43.608;1.458;2024-02-14T02:39:04;13.77;;;9.57;;
49722;SDS011;43484;43.608;1.458;2024-02-14T02:41:34;15.02;;;9.90;;
49722;SDS011;43484;43.608;1.458;2024-02-14T02:44:00;17.60;;;10.35;;
49722;SDS011;43484;43.608;1.458;2024-02-14T02:46:28;11.70;;;8.75;;
49722;SDS011;43484;43.608;1.458;2024-02-14T02:48:56;12.68;;;8.40;;
49722;SDS011;43484;43.608;1.458;2024-02-14T02:51:23;17.00;;;9.38;;
49722;SDS011;43484;43.608;1.458;2024-02-14T02:53:51;16.83;;;9.02;;
49722;SDS011;43484;43.608;1.458;2024-02-14T02:56:18;15.80;;;9.98;;
49722;SDS011;43484;43.608;1.458;2024-02-14T02:58:45;16.45;;;10.13;;
49722;SDS011;43484;43.608;1.458;2024-02-14T03:01:11;18.83;;;9.80;;
49722;SDS011;43484;43.608;1.458;2024-02-14T03:03:38;14.63;;;9.63;;
49722;SDS011;43484;43.608;1.458;2024-02-14T03:06:05;16.35;;;9.80;;
49722;SDS011;43484;43.608;1.458;2024-02-14T03:08:33;16.67;;;9.95;;
49722;SDS011;43484;43.608;1.458;2024-02-14T03:11:07;17.98;;;9.13;;
49722;SDS011;43484;43.608;1.458;2024-02-14T03:13:33;15.07;;;9.57;;
49722;SDS011;43484;43.608;1.458;2024-02-14T03:16:02;14.02;;;8.98;;
49722;SDS011;43484;43.608;1.458;2024-02-14T03:18:29;11.50;;;8.10;;
49722;SDS011;43484;43.608;1.458;2024-02-14T03:20:55;15.88;;;8.23;;
49722;SDS011;43484;43.608;1.458;2024-02-14T03:23:22;13.05;;;8.20;;
49722;SDS011;43484;43.608;1.458;2024-02-14T03:25:49;14.02;;;8.32;;
49722;SDS011;43484;43.608;1.458;2024-02-14T03:28:17;13.88;;;7.53;;
49722;SDS011;43484;43.608;1.458;2024-02-14T03:30:44;14.13;;;8.40;;
49722;SDS011;43484;43.608;1.458;2024-02-14T03:33:10;12.43;;;8.07;;
49722;SDS011;43484;43.608;1.458;2024-02-14T03:35:37;12.73;;;7.75;;
49722;SDS011;43484;43.608;1.458;2024-02-14T03:38:04;14.32;;;8.07;;
49722;SDS011;43484;43.608;1.458;2024-02-14T03:40:34;12.32;;;7.65;;
49722;SDS011;43484;43.608;1.458;2024-02-14T03:43:02;11.13;;;7.72;;
49722;SDS011;43484;43.608;1.458;2024-02-14T03:45:29;14.60;;;7.95;;
49722;SDS011;43484;43.608;1.458;2024-02-14T03:47:56;12.35;;;7.20;;
49722;SDS011;43484;43.608;1.458;2024-02-14T03:50:22;11.60;;;6.43;;
49722;SDS011;43484;43.608;1.458;2024-02-14T03:52:49;8.98;;;6.20;;
49722;SDS011;43484;43.608;1.458;2024-02-14T03:55:16;15.30;;;5.68;;
49722;SDS011;43484;43.608;1.458;2024-02-14T03:57:45;10.43;;;5.38;;
49722;SDS011;43484;43.608;1.458;2024-02-14T04:00:13;11.85;;;6.43;;
49722;SDS011;43484;43.608;1.458;2024-02-14T04:02:40;13.35;;;5.93;;
49722;SDS011;43484;43.608;1.458;2024-02-14T04:05:07;7.45;;;5.00;;
49722;SDS011;43484;43.608;1.458;2024-02-14T04:07:35;16.73;;;6.20;;
49722;SDS011;43484;43.608;1.458;2024-02-14T04:10:03;10.02;;;5.85;;
49722;SDS011;43484;43.608;1.458;2024-02-14T04:12:30;8.18;;;5.53;;
49722;SDS011;43484;43.608;1.458;2024-02-14T04:14:57;13.73;;;5.97;;
49722;SDS011;43484;43.608;1.458;2024-02-14T04:17:24;10.77;;;5.38;;
49722;SDS011;43484;43.608;1.458;2024-02-14T04:19:51;13.88;;;6.65;;
49722;SDS011;43484;43.608;1.458;2024-02-14T04:22:17;7.65;;;5.15;;
49722;SDS011;43484;43.608;1.458;2024-02-14T04:24:45;6.43;;;5.47;;
49722;SDS011;43484;43.608;1.458;2024-02-14T04:27:11;6.78;;;5.65;;
49722;SDS011;43484;43.608;1.458;2024-02-14T04:29:38;11.60;;;5.70;;
49722;SDS011;43484;43.608;1.458;2024-02-14T04:32:05;10.38;;;5.57;;
49722;SDS011;43484;43.608;1.458;2024-02-14T04:34:31;7.93;;;5.22;;
49722;SDS011;43484;43.608;1.458;2024-02-14T04:36:58;8.45;;;5.18;;
49722;SDS011;43484;43.608;1.458;2024-02-14T04:39:25;12.02;;;5.43;;
49722;SDS011;43484;43.608;1.458;2024-02-14T04:41:52;7.93;;;5.10;;
49722;SDS011;43484;43.608;1.458;2024-02-14T04:44:28;11.70;;;5.45;;
49722;SDS011;43484;43.608;1.458;2024-02-14T04:46:57;23.98;;;5.28;;
49722;SDS011;43484;43.608;1.458;2024-02-14T04:49:27;12.90;;;4.78;;
49722;SDS011;43484;43.608;1.458;2024-02-14T04:51:56;9.40;;;5.75;;
49722;SDS011;43484;43.608;1.458;2024-02-14T04:54:23;11.60;;;5.75;;
49722;SDS011;43484;43.608;1.458;2024-02-14T04:56:51;9.85;;;5.53;;
49722;SDS011;43484;43.608;1.458;2024-02-14T04:59:23;10.43;;;5.93;;
49722;SDS011;43484;43.608;1.458;2024-02-14T05:01:50;9.48;;;6.22;;
49722;SDS011;43484;43.608;1.458;2024-02-14T05:04:18;9.95;;;6.07;;
49722;SDS011;43484;43.608;1.458;2024-02-14T05:06:44;8.60;;;5.70;;
49722;SDS011;43484;43.608;1.458;2024-02-14T05:09:11;7.50;;;5.20;;
49722;SDS011;43484;43.608;1.458;2024-02-14T05:11:38;10.73;;;6.05;;
49722;SDS011;43484;43.608;1.458;2024-02-14T05:14:04;8.02;;;5.47;;
49722;SDS011;43484;43.608;1.458;2024-02-14T05:16:31;9.95;;;5.28;;
49722;SDS011;43484;43.608;1.458;2024-02-14T05:18:58;8.18;;;5.43;;
49722;SDS011;43484;43.608;1.458;2024-02-14T05:21:25;8.65;;;6.28;;
49722;SDS011;43484;43.608;1.458;2024-02-14T05:23:51;10.60;;;5.45;;
49722;SDS011;43484;43.608;1.458;2024-02-14T05:26:18;11.75;;;5.05;;
49722;SDS011;43484;43.608;1.458;2024-02-14T05:28:44;9.30;;;5.78;;
49722;SDS011;43484;43.608;1.458;2024-02-14T05:31:11;7.95;;;5.32;;
49722;SDS011;43484;43.608;1.458;2024-02-14T05:33:38;7.57;;;5.25;;
49722;SDS011;43484;43.608;1.458;2024-02-14T05:36:05;10.55;;;5.82;;
49722;SDS011;43484;43.608;1.458;2024-02-14T05:38:32;15.15;;;5.43;;
49722;SDS011;43484;43.608;1.458;2024-02-14T05:41:00;8.02;;;5.30;;
49722;SDS011;43484;43.608;1.458;2024-02-14T05:43:27;8.35;;;5.32;;
49722;SDS011;43484;43.608;1.458;2024-02-14T05:45:53;8.05;;;5.60;;
49722;SDS011;43484;43.608;1.458;2024-02-14T05:48:20;14.15;;;5.47;;
49722;SDS011;43484;43.608;1.458;2024-02-14T05:50:47;10.00;;;6.55;;
49722;SDS011;43484;43.608;1.458;2024-02-14T05:53:13;10.90;;;5.68;;
49722;SDS011;43484;43.608;1.458;2024-02-14T05:55:40;7.80;;;5.45;;
49722;SDS011;43484;43.608;1.458;2024-02-14T05:58:06;9.25;;;5.78;;
49722;SDS011;43484;43.608;1.458;2024-02-14T06:00:33;8.10;;;5.35;;
49722;SDS011;43484;43.608;1.458;2024-02-14T06:03:03;10.52;;;5.65;;
49722;SDS011;43484;43.608;1.458;2024-02-14T06:05:34;8.77;;;4.95;;
49722;SDS011;43484;43.608;1.458;2024-02-14T06:08:01;6.50;;;4.72;;
49722;SDS011;43484;43.608;1.458;2024-02-14T06:10:29;9.90;;;5.70;;
49722;SDS011;43484;43.608;1.458;2024-02-14T06:12:56;7.47;;;5.40;;
49722;SDS011;43484;43.608;1.458;2024-02-14T06:15:23;6.05;;;4.68;;
49722;SDS011;43484;43.608;1.458;2024-02-14T06:17:49;10.55;;;6.13;;
49722;SDS011;43484;43.608;1.458;2024-02-14T06:20:17;7.18;;;4.50;;
49722;SDS011;43484;43.608;1.458;2024-02-14T06:22:44;7.15;;;4.93;;
49722;SDS011;43484;43.608;1.458;2024-02-14T06:25:22;8.73;;;5.03;;
49722;SDS011;43484;43.608;1.458;2024-02-14T06:27:49;10.68;;;4.68;;
49722;SDS011;43484;43.608;1.458;2024-02-14T06:30:15;6.35;;;4.60;;
49722;SDS011;43484;43.608;1.458;2024-02-14T06:32:44;8.20;;;4.97;;
49722;SDS011;43484;43.608;1.458;2024-02-14T06:35:11;9.63;;;5.30;;
49722;SDS011;43484;43.608;1.458;2024-02-14T06:37:38;8.57;;;4.70;;
49722;SDS011;43484;43.608;1.458;2024-02-14T06:40:18;7.75;;;4.68;;
49722;SDS011;43484;43.608;1.458;2024-02-14T06:42:44;8.00;;;5.10;;
49722;SDS011;43484;43.608;1.458;2024-02-14T06:45:11;10.80;;;5.30;;
49722;SDS011;43484;43.608;1.458;2024-02-14T06:47:37;9.02;;;5.55;;
49722;SDS011;43484;43.608;1.458;2024-02-14T06:50:05;13.43;;;5.70;;
49722;SDS011;43484;43.608;1.458;2024-02-14T06:52:36;9.77;;;5.25;;
49722;SDS011;43484;43.608;1.458;2024-02-14T06:55:03;12.45;;;5.43;;
49722;SDS011;43484;43.608;1.458;2024-02-14T06:57:30;11.35;;;6.43;;
49722;SDS011;43484;43.608;1.458;2024-02-14T06:59:57;6.88;;;4.97;;
49722;SDS011;43484;43.608;1.458;2024-02-14T07:02:23;10.25;;;5.22;;
49722;SDS011;43484;43.608;1.458;2024-02-14T07:04:54;7.63;;;5.43;;
49722;SDS011;43484;43.608;1.458;2024-02-14T07:07:21;9.68;;;5.88;;
49722;SDS011;43484;43.608;1.458;2024-02-14T07:09:47;13.18;;;6.40;;
49722;SDS011;43484;43.608;1.458;2024-02-14T07:12:14;17.33;;;6.03;;
49722;SDS011;43484;43.608;1.458;2024-02-14T07:14:41;15.48;;;5.95;;
49722;SDS011;43484;43.608;1.458;2024-02-14T07:17:07;9.52;;;5.35;;
49722;SDS011;43484;43.608;1.458;2024-02-14T07:19:34;15.10;;;6.55;;
49722;SDS011;43484;43.608;1.458;2024-02-14T07:22:01;13.00;;;6.13;;
49722;SDS011;43484;43.608;1.458;2024-02-14T07:24:28;17.67;;;7.13;;
49722;SDS011;43484;43.608;1.458;2024-02-14T07:26:54;10.35;;;6.07;;
49722;SDS011;43484;43.608;1.458;2024-02-14T07:29:21;8.32;;;5.70;;
49722;SDS011;43484;43.608;1.458;2024-02-14T07:31:47;11.55;;;5.43;;
49722;SDS011;43484;43.608;1.458;2024-02-14T07:34:14;13.85;;;6.82;;
49722;SDS011;43484;43.608;1.458;2024-02-14T07:36:41;12.07;;;7.07;;
49722;SDS011;43484;43.608;1.458;2024-02-14T07:39:12;10.40;;;6.35;;
49722;SDS011;43484;43.608;1.458;2024-02-14T07:41:39;19.33;;;7.60;;
49722;SDS011;43484;43.608;1.458;2024-02-14T07:44:06;15.73;;;6.78;;
49722;SDS011;43484;43.608;1.458;2024-02-14T07:46:32;10.35;;;6.25;;
49722;SDS011;43484;43.608;1.458;2024-02-14T07:48:59;21.55;;;7.05;;
49722;SDS011;43484;43.608;1.458;2024-02-14T07:51:26;14.75;;;7.32;;
49722;SDS011;43484;43.608;1.458;2024-02-14T07:53:55;26.27;;;7.75;;
49722;SDS011;43484;43.608;1.458;2024-02-14T07:56:22;20.45;;;7.35;;
49722;SDS011;43484;43.608;1.458;2024-02-14T07:58:48;10.70;;;6.43;;
49722;SDS011;43484;43.608;1.458;2024-02-14T08:01:16;18.40;;;6.68;;
49722;SDS011;43484;43.608;1.458;2024-02-14T08:03:42;16.40;;;7.45;;
49722;SDS011;43484;43.608;1.458;2024-02-14T08:06:09;12.00;;;7.15;;
49722;SDS011;43484;43.608;1.458;2024-02-14T08:08:36;13.18;;;7.32;;
49722;SDS011;43484;43.608;1.458;2024-02-14T08:11:03;17.33;;;7.70;;
49722;SDS011;43484;43.608;1.458;2024-02-14T08:13:30;21.42;;;9.38;;
49722;SDS011;43484;43.608;1.458;2024-02-14T08:15:57;20.35;;;8.85;;
49722;SDS011;43484;43.608;1.458;2024-02-14T08:18:24;18.73;;;7.97;;
49722;SDS011;43484;43.608;1.458;2024-02-14T08:20:53;17.50;;;7.43;;
49722;SDS011;43484;43.608;1.458;2024-02-14T08:23:20;22.23;;;8.73;;
49722;SDS011;43484;43.608;1.458;2024-02-14T08:25:47;17.77;;;8.65;;
49722;SDS011;43484;43.608;1.458;2024-02-14T08:28:15;14.80;;;8.60;;
49722;SDS011;43484;43.608;1.458;2024-02-14T08:30:44;15.15;;;8.15;;
49722;SDS011;43484;43.608;1.458;2024-02-14T08:33:11;20.48;;;8.55;;
49722;SDS011;43484;43.608;1.458;2024-02-14T08:35:38;14.35;;;8.88;;
49722;SDS011;43484;43.608;1.458;2024-02-14T08:38:09;18.75;;;8.18;;
49722;SDS011;43484;43.608;1.458;2024-02-14T08:40:36;13.20;;;7.78;;
49722;SDS011;43484;43.608;1.458;2024-02-14T08:43:03;16.65;;;8.32;;
49722;SDS011;43484;43.608;1.458;2024-02-14T08:45:31;11.93;;;8.13;;
49722;SDS011;43484;43.608;1.458;2024-02-14T08:47:58;18.80;;;8.13;;
49722;SDS011;43484;43.608;1.458;2024-02-14T08:50:25;23.50;;;8.15;;
49722;SDS011;43484;43.608;1.458;2024-02-14T08:52:51;20.98;;;7.88;;
49722;SDS011;43484;43.608;1.458;2024-02-14T08:55:18;20.02;;;7.82;;
49722;SDS011;43484;43.608;1.458;2024-02-14T08:57:45;17.35;;;7.85;;
49722;SDS011;43484;43.608;1.458;2024-02-14T09:00:14;14.63;;;6.65;;
49722;SDS011;43484;43.608;1.458;2024-02-14T09:02:46;18.02;;;7.20;;
49722;SDS011;43484;43.608;1.458;2024-02-14T09:05:17;20.35;;;6.30;;
49722;SDS011;43484;43.608;1.458;2024-02-14T09:07:44;12.45;;;5.63;;
49722;SDS011;43484;43.608;1.458;2024-02-14T09:10:11;15.80;;;7.15;;
49722;SDS011;43484;43.608;1.458;2024-02-14T09:12:39;13.93;;;5.63;;
49722;SDS011;43484;43.608;1.458;2024-02-14T09:15:07;15.25;;;5.78;;
49722;SDS011;43484;43.608;1.458;2024-02-14T09:17:34;11.50;;;6.00;;
49722;SDS011;43484;43.608;1.458;2024-02-14T09:20:01;13.50;;;5.55;;
49722;SDS011;43484;43.608;1.458;2024-02-14T09:22:28;12.77;;;5.88;;
49722;SDS011;43484;43.608;1.458;2024-02-14T09:24:56;9.27;;;4.82;;
49722;SDS011;43484;43.608;1.458;2024-02-14T09:27:23;27.80;;;7.95;;
49722;SDS011;43484;43.608;1.458;2024-02-14T09:29:50;20.35;;;7.97;;
49722;SDS011;43484;43.608;1.458;2024-02-14T09:32:16;17.70;;;6.13;;
49722;SDS011;43484;43.608;1.458;2024-02-14T09:34:44;7.95;;;4.40;;
49722;SDS011;43484;43.608;1.458;2024-02-14T09:37:12;7.72;;;4.30;;
49722;SDS011;43484;43.608;1.458;2024-02-14T09:39:39;10.18;;;4.55;;
49722;SDS011;43484;43.608;1.458;2024-02-14T09:42:08;14.57;;;5.32;;
49722;SDS011;43484;43.608;1.458;2024-02-14T09:44:37;6.75;;;4.35;;
49722;SDS011;43484;43.608;1.458;2024-02-14T09:47:06;12.85;;;5.05;;
49722;SDS011;43484;43.608;1.458;2024-02-14T09:49:34;11.30;;;4.40;;
49722;SDS011;43484;43.608;1.458;2024-02-14T09:52:02;7.10;;;4.78;;
49722;SDS011;43484;43.608;1.458;2024-02-14T09:54:30;12.10;;;5.22;;
49722;SDS011;43484;43.608;1.458;2024-02-14T09:56:57;9.50;;;5.53;;
49722;SDS011;43484;43.608;1.458;2024-02-14T09:59:25;9.82;;;4.47;;
49722;SDS011;43484;43.608;1.458;2024-02-14T10:01:52;15.38;;;6.03;;
49722;SDS011;43484;43.608;1.458;2024-02-14T10:04:19;11.70;;;5.75;;
49722;SDS011;43484;43.608;1.458;2024-02-14T10:06:50;14.63;;;7.18;;
49722;SDS011;43484;43.608;1.458;2024-02-14T10:09:21;13.00;;;6.13;;
49722;SDS011;43484;43.608;1.458;2024-02-14T10:11:48;13.30;;;6.05;;
49722;SDS011;43484;43.608;1.458;2024-02-14T10:14:15;18.92;;;6.20;;
49722;SDS011;43484;43.608;1.458;2024-02-14T10:16:42;21.13;;;6.18;;
49722;SDS011;43484;43.608;1.458;2024-02-14T10:19:18;26.08;;;6.30;;
49722;SDS011;43484;43.608;1.458;2024-02-14T10:21:55;20.00;;;5.90;;
49722;SDS011;43484;43.608;1.458;2024-02-14T10:24:27;22.20;;;5.80;;
49722;SDS011;43484;43.608;1.458;2024-02-14T10:26:54;21.35;;;6.72;;
49722;SDS011;43484;43.608;1.458;2024-02-14T10:29:24;22.02;;;5.95;;
49722;SDS011;43484;43.608;1.458;2024-02-14T10:31:52;24.23;;;5.93;;
49722;SDS011;43484;43.608;1.458;2024-02-14T10:34:19;17.38;;;5.25;;
49722;SDS011;43484;43.608;1.458;2024-02-14T10:36:52;22.73;;;4.82;;
49722;SDS011;43484;43.608;1.458;2024-02-14T10:39:22;10.98;;;4.05;;
49722;SDS011;43484;43.608;1.458;2024-02-14T10:41:51;18.73;;;3.70;;
49722;SDS011;43484;43.608;1.458;2024-02-14T10:44:19;7.18;;;3.30;;
49722;SDS011;43484;43.608;1.458;2024-02-14T10:46:46;10.77;;;3.50;;
49722;SDS011;43484;43.608;1.458;2024-02-14T10:49:15;11.18;;;3.17;;
49722;SDS011;43484;43.608;1.458;2024-02-14T10:51:43;7.13;;;2.45;;
49722;SDS011;43484;43.608;1.458;2024-02-14T10:54:10;9.98;;;2.50;;
49722;SDS011;43484;43.608;1.458;2024-02-14T10:56:40;5.65;;;2.05;;
49722;SDS011;43484;43.608;1.458;2024-02-14T10:59:11;6.85;;;1.45;;
49722;SDS011;43484;43.608;1.458;2024-02-14T11:01:43;1.88;;;0.90;;
49722;SDS011;43484;43.608;1.458;2024-02-14T11:04:11;5.03;;;1.35;;
49722;SDS011;43484;43.608;1.458;2024-02-14T11:06:45;3.70;;;1.10;;
49722;SDS011;43484;43.608;1.458;2024-02-14T11:11:42;1.88;;;1.10;;
49722;SDS011;43484;43.608;1.458;2024-02-14T11:14:17;2.63;;;1.63;;
49722;SDS011;43484;43.608;1.458;2024-02-14T11:16:45;3.97;;;1.50;;
49722;SDS011;43484;43.608;1.458;2024-02-14T11:19:13;4.03;;;1.40;;
49722;SDS011;43484;43.608;1.458;2024-02-14T11:21:41;4.53;;;0.98;;
49722;SDS011;43484;43.608;1.458;2024-02-14T11:24:13;3.65;;;1.50;;
49722;SDS011;43484;43.608;1.458;2024-02-14T11:26:47;5.22;;;0.90;;
49722;SDS011;43484;43.608;1.458;2024-02-14T11:29:16;8.60;;;1.40;;
49722;SDS011;43484;43.608;1.458;2024-02-14T11:31:48;2.05;;;0.82;;
49722;SDS011;43484;43.608;1.458;2024-02-14T11:34:15;1.33;;;0.80;;
49722;SDS011;43484;43.608;1.458;2024-02-14T11:36:42;2.60;;;0.80;;
49722;SDS011;43484;43.608;1.458;2024-02-14T11:39:10;4.07;;;1.00;;
49722;SDS011;43484;43.608;1.458;2024-02-14T11:41:38;1.90;;;1.10;;
49722;SDS011;43484;43.608;1.458;2024-02-14T11:44:05;1.80;;;0.60;;
49722;SDS011;43484;43.608;1.458;2024-02-14T11:46:32;1.30;;;0.80;;
49722;SDS011;43484;43.608;1.458;2024-02-14T11:49:00;1.98;;;0.90;;
49722;SDS011;43484;43.608;1.458;2024-02-14T11:51:28;3.22;;;0.90;;
49722;SDS011;43484;43.608;1.458;2024-02-14T11:54:00;3.13;;;0.73;;
49722;SDS011;43484;43.608;1.458;2024-02-14T11:56:31;1.20;;;0.47;;
49722;SDS011;43484;43.608;1.458;2024-02-14T11:59:05;1.05;;;0.70;;
49722;SDS011;43484;43.608;1.458;2024-02-14T12:01:34;1.88;;;0.80;;
49722;SDS011;43484;43.608;1.458;2024-02-14T12:04:03;1.90;;;0.82;;
49722;SDS011;43484;43.608;1.458;2024-02-14T12:06:32;4.03;;;0.85;;
49722;SDS011;43484;43.608;1.458;2024-02-14T12:09:04;5.88;;;0.75;;
49722;SDS011;43484;43.608;1.458;2024-02-14T12:11:32;4.80;;;0.70;;
49722;SDS011;43484;43.608;1.458;2024-02-14T12:14:02;2.60;;;0.90;;
49722;SDS011;43484;43.608;1.458;2024-02-14T12:16:31;2.80;;;0.98;;
49722;SDS011;43484;43.608;1.458;2024-02-14T12:19:05;3.55;;;0.68;;
49722;SDS011;43484;43.608;1.458;2024-02-14T12:21:41;2.65;;;0.73;;
49722;SDS011;43484;43.608;1.458;2024-02-14T12:24:11;3.42;;;0.90;;
49722;SDS011;43484;43.608;1.458;2024-02-14T12:26:40;3.22;;;1.00;;
49722;SDS011;43484;43.608;1.458;2024-02-14T12:29:10;5.32;;;1.17;;
49722;SDS011;43484;43.608;1.458;2024-02-14T12:31:39;5.05;;;1.25;;
49722;SDS011;43484;43.608;1.458;2024-02-14T12:34:06;7.68;;;1.48;;
49722;SDS011;43484;43.608;1.458;2024-02-14T12:36:33;4.97;;;1.10;;
49722;SDS011;43484;43.608;1.458;2024-02-14T12:39:00;2.10;;;1.10;;
49722;SDS011;43484;43.608;1.458;2024-02-14T12:41:31;4.13;;;1.05;;
49722;SDS011;43484;43.608;1.458;2024-02-14T12:43:59;1.98;;;0.80;;
49722;SDS011;43484;43.608;1.458;2024-02-14T12:46:27;6.07;;;0.93;;
49722;SDS011;43484;43.608;1.458;2024-02-14T12:48:53;2.72;;;1.30;;
49722;SDS011;43484;43.608;1.458;2024-02-14T12:51:20;3.25;;;0.90;;
49722;SDS011;43484;43.608;1.458;2024-02-14T12:53:48;6.75;;;1.55;;
49722;SDS011;43484;43.608;1.458;2024-02-14T12:56:15;13.05;;;1.45;;
49722;SDS011;43484;43.608;1.458;2024-02-14T12:58:41;2.72;;;0.68;;
49722;SDS011;43484;43.608;1.458;2024-02-14T13:01:08;2.30;;;0.60;;
49722;SDS011;43484;43.608;1.458;2024-02-14T13:03:36;3.47;;;0.60;;
49722;SDS011;43484;43.608;1.458;2024-02-14T13:06:03;2.47;;;0.90;;
49722;SDS011;43484;43.608;1.458;2024-02-14T13:08:30;3.03;;;0.70;;
49722;SDS011;43484;43.608;1.458;2024-02-14T13:10:57;2.25;;;0.70;;
49722;SDS011;43484;43.608;1.458;2024-02-14T13:13:24;5.15;;;0.95;;
49722;SDS011;43484;43.608;1.458;2024-02-14T13:15:50;1.67;;;0.80;;
49722;SDS011;43484;43.608;1.458;2024-02-14T13:18:17;1.70;;;0.70;;
49722;SDS011;43484;43.608;1.458;2024-02-14T13:20:44;2.75;;;0.90;;
49722;SDS011;43484;43.608;1.458;2024-02-14T13:23:11;1.90;;;0.82;;
49722;SDS011;43484;43.608;1.458;2024-02-14T13:25:40;3.22;;;1.17;;
49722;SDS011;43484;43.608;1.458;2024-02-14T13:28:07;6.03;;;1.35;;
49722;SDS011;43484;43.608;1.458;2024-02-14T13:30:34;5.85;;;1.10;;
49722;SDS011;43484;43.608;1.458;2024-02-14T13:33:03;2.22;;;1.00;;
49722;SDS011;43484;43.608;1.458;2024-02-14T13:35:31;4.85;;;1.67;;
49722;SDS011;43484;43.608;1.458;2024-02-14T13:38:04;5.75;;;1.02;;
49722;SDS011;43484;43.608;1.458;2024-02-14T13:40:36;2.70;;;0.80;;
49722;SDS011;43484;43.608;1.458;2024-02-14T13:43:02;5.40;;;0.88;;
49722;SDS011;43484;43.608;1.458;2024-02-14T13:45:39;3.08;;;0.85;;
49722;SDS011;43484;43.608;1.458;2024-02-14T13:48:08;3.10;;;0.80;;
49722;SDS011;43484;43.608;1.458;2024-02-14T13:50:36;3.95;;;0.77;;
49722;SDS011;43484;43.608;1.458;2024-02-14T13:53:04;1.85;;;0.57;;
49722;SDS011;43484;43.608;1.458;2024-02-14T13:55:32;2.95;;;0.70;;
49722;SDS011;43484;43.608;1.458;2024-02-14T13:57:59;1.52;;;0.40;;
49722;SDS011;43484;43.608;1.458;2024-02-14T14:00:26;2.85;;;0.30;;
49722;SDS011;43484;43.608;1.458;2024-02-14T14:02:53;4.70;;;0.60;;
49722;SDS011;43484;43.608;1.458;2024-02-14T14:05:21;3.97;;;0.40;;
49722;SDS011;43484;43.608;1.458;2024-02-14T14:07:48;1.00;;;0.47;;
49722;SDS011;43484;43.608;1.458;2024-02-14T14:10:24;1.63;;;0.50;;
49722;SDS011;43484;43.608;1.458;2024-02-14T14:12:53;3.95;;;0.47;;
49722;SDS011;43484;43.608;1.458;2024-02-14T14:15:20;1.08;;;0.43;;
49722;SDS011;43484;43.608;1.458;2024-02-14T14:17:48;4.50;;;0.90;;
49722;SDS011;43484;43.608;1.458;2024-02-14T14:20:15;1.42;;;0.55;;
49722;SDS011;43484;43.608;1.458;2024-02-14T14:22:42;2.58;;;0.98;;
49722;SDS011;43484;43.608;1.458;2024-02-14T14:25:08;2.08;;;0.57;;
49722;SDS011;43484;43.608;1.458;2024-02-14T14:27:35;2.58;;;0.60;;
49722;SDS011;43484;43.608;1.458;2024-02-14T14:30:02;2.58;;;0.70;;
49722;SDS011;43484;43.608;1.458;2024-02-14T14:32:30;2.53;;;0.52;;
49722;SDS011;43484;43.608;1.458;2024-02-14T14:34:57;1.38;;;0.50;;
49722;SDS011;43484;43.608;1.458;2024-02-14T14:37:24;1.67;;;0.60;;
49722;SDS011;43484;43.608;1.458;2024-02-14T14:39:50;1.50;;;0.50;;
49722;SDS011;43484;43.608;1.458;2024-02-14T14:42:17;2.20;;;0.50;;
49722;SDS011;43484;43.608;1.458;2024-02-14T14:44:44;3.70;;;0.73;;